createdAt,value
2019-04-14T00:01:17.249Z,13.27
2019-04-14T00:06:22.918Z,13.57
2019-04-14T00:11:28.022Z,12.00
2019-04-14T00:16:33.811Z,12.23
2019-04-14T00:21:39.096Z,13.50
2019-04-14T00:26:44.484Z,12.87
2019-04-14T00:31:52.166Z,14.40
2019-04-14T00:37:16.337Z,14.00
2019-04-14T00:42:40.886Z,16.13
2019-04-14T00:48:01.098Z,15.67
2019-04-14T00:53:01.201Z,14.13
2019-04-14T00:58:06.462Z,14.57
2019-04-14T01:03:11.766Z,14.47
2019-04-14T01:08:16.629Z,14.60
2019-04-14T01:13:22.188Z,17.17
2019-04-14T01:18:27.629Z,17.20
2019-04-14T01:23:32.872Z,20.47
2019-04-14T01:28:37.739Z,17.33
2019-04-14T01:33:44.428Z,18.67
2019-04-14T01:38:49.839Z,18.90
2019-04-14T01:43:55.973Z,21.40
2019-04-14T01:49:01.327Z,22.63
2019-04-14T01:54:32.370Z,17.67
2019-04-14T01:59:37.645Z,17.90
2019-04-14T02:04:44.312Z,17.70
2019-04-14T02:09:49.301Z,16.27
2019-04-14T02:14:54.230Z,16.87
2019-04-14T02:20:01.269Z,17.80
2019-04-14T02:25:07.729Z,18.00
2019-04-14T02:30:19.244Z,18.13
2019-04-14T02:36:05.740Z,17.23
2019-04-14T02:41:04.311Z,18.17
2019-04-14T02:46:05.825Z,18.23
2019-04-14T02:51:12.330Z,16.83
2019-04-14T02:56:15.974Z,16.87
2019-04-14T03:01:26.058Z,18.47
2019-04-14T03:06:25.241Z,17.80
2019-04-14T03:11:32.948Z,15.37
2019-04-14T03:17:14.627Z,18.07
2019-04-14T03:22:26.126Z,18.87
2019-04-14T03:27:49.895Z,17.97
2019-04-14T03:37:53.974Z,17.43
2019-04-14T03:43:07.604Z,17.67
2019-04-14T03:48:34.619Z,15.50
2019-04-14T03:53:16.271Z,18.97
2019-04-14T03:57:54.101Z,17.13
2019-04-14T04:02:59.794Z,17.20
2019-04-14T04:08:05.098Z,15.43
2019-04-14T04:13:10.526Z,17.63
2019-04-14T04:18:20.010Z,15.37
2019-04-14T04:23:31.376Z,19.03
2019-04-14T04:28:54.491Z,18.13
2019-04-14T04:34:09.800Z,17.53
2019-04-14T04:39:19.665Z,16.17
2019-04-14T04:44:24.857Z,16.63
2019-04-14T04:49:32.437Z,16.70
2019-04-14T04:54:38.486Z,18.83
2019-04-14T04:59:43.638Z,21.50
2019-04-14T05:04:49.121Z,18.90
2019-04-14T05:10:19.595Z,19.97
2019-04-14T05:15:36.047Z,22.53
2019-04-14T05:20:41.999Z,18.10
2019-04-14T05:25:47.505Z,19.13
2019-04-14T05:30:52.588Z,19.33
2019-04-14T05:35:58.173Z,20.30
2019-04-14T05:41:03.087Z,22.60
2019-04-14T05:46:07.939Z,23.57
2019-04-14T05:51:13.090Z,28.03
2019-04-14T05:56:18.648Z,25.97
2019-04-14T06:01:24.803Z,23.97
2019-04-14T06:06:29.878Z,21.87
2019-04-14T06:11:35.112Z,27.60
2019-04-14T06:16:40.292Z,24.67
2019-04-14T06:21:45.229Z,25.97
2019-04-14T06:26:50.734Z,24.93
2019-04-14T06:32:05.228Z,27.50
2019-04-14T06:37:15.990Z,27.23
2019-04-14T06:42:20.914Z,27.57
2019-04-14T06:47:25.812Z,26.07
2019-04-14T06:52:30.642Z,27.03
2019-04-14T06:57:37.675Z,26.27
2019-04-14T07:02:42.870Z,26.37
2019-04-14T07:07:56.945Z,29.40
2019-04-14T07:12:55.544Z,23.47
2019-04-14T07:18:01.884Z,29.03
2019-04-14T07:23:07.110Z,28.83
2019-04-14T07:28:12.583Z,29.17
2019-04-14T07:33:46.425Z,25.23
2019-04-14T07:39:09.582Z,24.80
2019-04-14T07:44:30.854Z,29.90
2019-04-14T07:49:58.621Z,28.57
2019-04-14T07:55:11.758Z,30.93
2019-04-14T08:00:30.946Z,31.53
2019-04-14T08:05:37.938Z,27.47
2019-04-14T08:10:42.938Z,28.70
2019-04-14T08:15:48.270Z,27.10
2019-04-14T08:20:53.502Z,26.07
2019-04-14T08:25:59.119Z,27.27
2019-04-14T08:31:04.335Z,25.87
2019-04-14T08:36:09.583Z,31.57
2019-04-14T08:41:14.742Z,27.70
2019-04-14T08:46:27.544Z,28.50
2019-04-14T08:51:36.293Z,21.77
2019-04-14T08:56:48.219Z,22.27
2019-04-14T09:02:18.765Z,17.93
2019-04-14T09:07:33.389Z,23.20
2019-04-14T09:12:39.923Z,18.03
2019-04-14T09:17:45.126Z,25.80
2019-04-14T09:22:50.116Z,22.67
2019-04-14T09:27:55.105Z,20.70
2019-04-14T09:33:03.629Z,20.73
2019-04-14T09:38:08.812Z,22.93
2019-04-14T09:43:13.965Z,22.03
2019-04-14T09:48:18.945Z,22.37
2019-04-14T09:53:24.094Z,24.37
2019-04-14T09:58:29.224Z,23.83
2019-04-14T10:03:34.584Z,24.83
2019-04-14T10:08:39.560Z,21.40
2019-04-14T10:13:44.705Z,24.63
2019-04-14T10:18:49.867Z,20.70
2019-04-14T10:23:55.322Z,25.23
2019-04-14T10:29:00.063Z,24.30
2019-04-14T10:34:04.947Z,23.50
2019-04-14T10:39:10.126Z,23.33
2019-04-14T10:44:15.340Z,25.57
2019-04-14T10:49:20.508Z,22.57
2019-04-14T10:54:25.870Z,18.23
2019-04-14T10:59:31.021Z,25.90
2019-04-14T11:04:36.189Z,21.10
2019-04-14T11:09:41.274Z,21.17
2019-04-14T11:14:46.489Z,23.03
2019-04-14T11:19:51.764Z,22.40
2019-04-14T11:24:56.706Z,18.97
2019-04-14T11:30:01.726Z,21.80
2019-04-14T11:35:29.245Z,18.17
2019-04-14T11:40:39.735Z,20.40
2019-04-14T11:45:44.752Z,19.37
2019-04-14T11:50:49.995Z,21.17
2019-04-14T11:55:54.903Z,18.33
2019-04-14T12:01:28.294Z,20.47
2019-04-14T12:06:56.821Z,22.63
2019-04-14T12:12:01.899Z,19.07
2019-04-14T12:17:07.305Z,18.20
2019-04-14T12:22:12.909Z,17.50
2019-04-14T12:27:18.136Z,16.93
2019-04-14T12:32:23.107Z,19.33
2019-04-14T12:37:28.748Z,17.97
2019-04-14T12:42:45.331Z,14.93
2019-04-14T12:47:56.547Z,16.43
2019-04-14T12:53:01.832Z,15.17
2019-04-14T12:58:07.517Z,14.57
2019-04-14T13:03:12.488Z,13.30
2019-04-14T13:08:18.070Z,15.43
2019-04-14T13:13:23.232Z,13.87
2019-04-14T13:18:28.163Z,16.73
2019-04-14T13:23:33.494Z,12.13
2019-04-14T13:28:38.689Z,15.70
2019-04-14T13:33:44.124Z,14.90
2019-04-14T13:38:49.385Z,13.27
2019-04-14T13:43:55.157Z,16.00
2019-04-14T13:49:00.565Z,14.00
2019-04-14T13:54:05.939Z,10.50
2019-04-14T13:59:11.281Z,12.30
2019-04-14T14:04:16.649Z,11.73
2019-04-14T14:09:21.729Z,14.03
2019-04-14T14:14:35.426Z,12.20
2019-04-14T14:19:46.440Z,12.43
2019-04-14T14:24:58.077Z,12.13
2019-04-14T14:30:03.495Z,11.83
2019-04-14T14:35:09.214Z,15.63
2019-04-14T14:40:14.453Z,13.73
2019-04-14T14:45:38.731Z,11.50
2019-04-14T14:50:56.445Z,13.63
2019-04-14T14:56:01.656Z,12.10
2019-04-14T15:01:08.086Z,14.03
2019-04-14T15:06:13.075Z,14.93
2019-04-14T15:11:18.311Z,13.70
2019-04-14T15:16:23.732Z,12.97
2019-04-14T15:21:29.245Z,13.40
2019-04-14T15:26:34.481Z,11.20
2019-04-14T15:31:39.990Z,12.03
2019-04-14T15:36:44.968Z,14.27
2019-04-14T15:41:50.027Z,12.07
2019-04-14T15:46:55.800Z,13.37
2019-04-14T15:52:01.140Z,12.93
2019-04-14T15:57:37.695Z,13.53
2019-04-14T16:02:55.445Z,12.73
2019-04-14T16:08:10.393Z,13.03
2019-04-14T16:13:34.296Z,11.33
2019-04-14T16:18:54.718Z,14.50
2019-04-14T16:24:00.197Z,11.30
2019-04-14T16:29:11.396Z,14.77
2019-04-14T16:34:25.886Z,13.53
2019-04-14T16:39:30.854Z,11.20
2019-04-14T16:44:36.356Z,13.87
2019-04-14T16:49:42.058Z,12.20
2019-04-14T16:55:02.351Z,12.20
2019-04-14T17:00:09.060Z,12.93
2019-04-14T17:05:14.323Z,14.00
2019-04-14T17:10:19.580Z,13.10
2019-04-14T17:15:42.543Z,13.17
2019-04-14T17:21:05.522Z,12.03
2019-04-14T17:26:36.676Z,11.97
2019-04-14T17:32:06.928Z,11.57
2019-04-14T17:37:18.741Z,11.87
2019-04-14T17:42:28.042Z,14.23
2019-04-14T17:47:51.014Z,14.97
2019-04-14T17:53:17.992Z,11.77
2019-04-14T17:58:27.703Z,11.30
2019-04-14T18:03:45.493Z,11.73
2019-04-14T18:09:03.496Z,9.67
2019-04-14T18:14:14.349Z,12.23
2019-04-14T18:19:30.169Z,10.47
2019-04-14T18:24:42.431Z,11.00
2019-04-14T18:29:47.140Z,11.63
2019-04-14T18:35:23.731Z,12.50
2019-04-14T18:40:46.736Z,13.13
2019-04-14T18:45:55.812Z,11.57
2019-04-14T18:51:38.465Z,11.60
2019-04-14T18:56:54.297Z,10.67
2019-04-14T19:02:02.067Z,12.50
2019-04-14T19:07:07.481Z,10.23
2019-04-14T19:12:30.550Z,9.70
2019-04-14T19:17:51.054Z,10.03
2019-04-14T19:22:56.312Z,10.67
2019-04-14T19:28:03.065Z,10.50
2019-04-14T19:33:08.303Z,8.40
2019-04-14T19:38:13.588Z,9.60
2019-04-14T19:43:23.816Z,7.57
2019-04-14T19:48:25.511Z,6.53
2019-04-14T19:53:30.752Z,8.87
2019-04-14T19:58:36.825Z,9.07
2019-04-14T20:03:41.357Z,8.70
2019-04-14T20:08:46.646Z,8.43
2019-04-14T20:13:51.918Z,8.40
2019-04-14T20:19:18.942Z,7.73
2019-04-14T20:24:31.737Z,7.83
2019-04-14T20:29:39.416Z,11.37
2019-04-14T20:34:47.196Z,8.17
2019-04-14T20:40:09.518Z,11.90
2019-04-14T20:45:15.669Z,9.10
2019-04-14T20:50:22.061Z,10.10
2019-04-14T21:00:52.066Z,7.53
2019-04-14T21:06:27.181Z,8.27
2019-04-14T21:11:52.228Z,10.13
2019-04-14T21:17:10.495Z,10.57
2019-04-14T21:22:40.719Z,9.87
2019-04-14T21:27:58.012Z,9.67
2019-04-14T21:33:31.310Z,10.07
2019-04-14T21:38:47.738Z,9.83
2019-04-14T21:43:52.785Z,7.67
2019-04-14T21:48:59.092Z,9.07
2019-04-14T21:54:04.801Z,7.27
2019-04-14T21:59:16.590Z,6.80
2019-04-14T22:04:44.860Z,6.17
2019-04-14T22:09:50.987Z,6.47
2019-04-14T22:14:55.900Z,6.50
2019-04-14T22:20:00.966Z,6.67
2019-04-14T22:25:06.374Z,5.73
2019-04-14T22:30:11.933Z,8.30
2019-04-14T22:35:16.858Z,6.13
2019-04-14T22:40:21.838Z,7.90
2019-04-14T22:45:26.892Z,6.77
2019-04-14T22:50:31.938Z,6.93
2019-04-14T22:55:37.121Z,6.33
2019-04-14T23:00:50.281Z,6.40
2019-04-14T23:06:04.288Z,7.33
2019-04-14T23:11:27.452Z,6.80
2019-04-14T23:16:40.435Z,7.00
2019-04-14T23:21:59.746Z,5.70
2019-04-14T23:27:05.122Z,8.90
2019-04-14T23:32:10.129Z,7.60
2019-04-14T23:37:15.026Z,7.60
2019-04-14T23:42:20.301Z,7.37
2019-04-14T23:47:44.437Z,9.10
2019-04-14T23:53:01.481Z,7.13
2019-04-14T23:58:06.850Z,7.27
